Lalin, Spain
Current Conditions -  °F | °C
As of 3:00 PM on Saturday 01 Nov 2014 (Local Time) from LEST Reporting Station
Scattered Clouds Scattered Clouds  
Wind Chill: 63°   Ceiling: Unl
Heat Index: 63°   Visibility: 6mi
Dew Point: 46°   Wind: 5mph
Humidity: 55%   Direction: 250°WSW
Pressure: 30.24"   Gusts: NA
Location:  42.66°N, 8.11°W
Report Text: LEST 011400Z 25004KT 170V330 9999 FEW030 SCT046 17/08 Q1024 NOSIG
Loading
Personal Weather Stations






























Interactive Weather Map
Tropical Storm Tracking
New forecast layout! Learn more

10-Day Weather Forecast

Advertisements
Track Severe Weather on mobile